UAL1939 KLAX-KEWR
Flight info
| Callsign | UAL1939 |
|---|---|
| Flight time | N/A |
| Altitude | 37000 |
| Route | ORCKA5 LAS J146 DVC HBU MCK OVR DSM EVOTE NELLS KEEHO J584 SLT FQM3 |
| Aircraft | B77W/H-SDE1E2E3FGHIJ2J3J4J5M1RWXY/LB1D1 |
Departure
| Time | 2026-04-25 18:07 |
|---|---|
| Airport | Los Angeles International Airport (KLAX) |
Arrival
| Time | N/A |
|---|---|
| Airport | Newark Liberty International Airport (KEWR) |
| Time | Latitude | Longitude | Altitude | Speed | Heading |
|---|---|---|---|---|---|
| 2026-04-25 17:45 | 33.93968 | -118.40483 | 96 ft | 0 kts | 35° |
| 2026-04-25 17:45 | 33.93972 | -118.40481 | 98 ft | 0 kts | 35° |
| 2026-04-25 17:55 | 33.93953 | -118.40496 | 97 ft | 4 kts | 35° |
| 2026-04-25 17:55 | 33.93931 | -118.40515 | 96 ft | 4 kts | 35° |
| 2026-04-25 17:55 | 33.93911 | -118.40535 | 96 ft | 4 kts | 59° |
| 2026-04-25 17:55 | 33.93904 | -118.40564 | 97 ft | 4 kts | 83° |
| 2026-04-25 17:56 | 33.93901 | -118.40595 | 96 ft | 2 kts | 83° |
| 2026-04-25 17:56 | 33.93901 | -118.40598 | 96 ft | 0 kts | 83° |
| 2026-04-25 17:59 | 33.93903 | -118.40572 | 96 ft | 6 kts | 87° |
| 2026-04-25 17:59 | 33.93876 | -118.40538 | 98 ft | 6 kts | 162° |
| 2026-04-25 17:59 | 33.93838 | -118.40517 | 101 ft | 6 kts | 124° |
| 2026-04-25 17:59 | 33.93833 | -118.40464 | 103 ft | 7 kts | 83° |
| 2026-04-25 18:00 | 33.93839 | -118.40406 | 99 ft | 8 kts | 83° |
| 2026-04-25 18:00 | 33.93846 | -118.40340 | 100 ft | 8 kts | 83° |
| 2026-04-25 18:00 | 33.93853 | -118.40274 | 102 ft | 8 kts | 83° |
| 2026-04-25 18:00 | 33.93860 | -118.40207 | 101 ft | 8 kts | 83° |
| 2026-04-25 18:01 | 33.93867 | -118.40141 | 104 ft | 8 kts | 83° |
| 2026-04-25 18:01 | 33.93874 | -118.40076 | 101 ft | 8 kts | 83° |
| 2026-04-25 18:01 | 33.93879 | -118.40010 | 101 ft | 8 kts | 86° |
| 2026-04-25 18:01 | 33.93885 | -118.39943 | 103 ft | 8 kts | 83° |
| 2026-04-25 18:02 | 33.93892 | -118.39867 | 101 ft | 11 kts | 83° |
| 2026-04-25 18:02 | 33.93903 | -118.39752 | 101 ft | 16 kts | 83° |
| 2026-04-25 18:02 | 33.93919 | -118.39599 | 100 ft | 19 kts | 83° |
| 2026-04-25 18:02 | 33.93936 | -118.39442 | 102 ft | 19 kts | 84° |
| 2026-04-25 18:03 | 33.93952 | -118.39282 | 100 ft | 19 kts | 81° |
| 2026-04-25 18:03 | 33.93968 | -118.39122 | 102 ft | 19 kts | 83° |
| 2026-04-25 18:03 | 33.93984 | -118.38965 | 100 ft | 19 kts | 83° |
| 2026-04-25 18:03 | 33.94000 | -118.38805 | 100 ft | 19 kts | 83° |
| 2026-04-25 18:04 | 33.94016 | -118.38646 | 102 ft | 19 kts | 82° |
| 2026-04-25 18:04 | 33.94034 | -118.38486 | 101 ft | 19 kts | 82° |
| 2026-04-25 18:04 | 33.94042 | -118.38366 | 101 ft | 7 kts | 92° |
| 2026-04-25 18:04 | 33.94008 | -118.38337 | 103 ft | 7 kts | 166° |
| 2026-04-25 18:05 | 33.93966 | -118.38347 | 106 ft | 7 kts | 220° |
| 2026-04-25 18:05 | 33.93950 | -118.38392 | 105 ft | 0 kts | 262° |
| 2026-04-25 18:06 | 33.93950 | -118.38397 | 104 ft | 1 kts | 262° |
| 2026-04-25 18:07 | 33.93947 | -118.38422 | 104 ft | 13 kts | 262° |
| 2026-04-25 18:07 | 33.93912 | -118.38724 | 102 ft | 77 kts | 262° |
| 2026-04-25 18:07 | 33.93798 | -118.39836 | 108 ft | 188 kts | 263° |
| 2026-04-25 18:07 | 33.93652 | -118.41531 | 1187 ft | 201 kts | 265° |
| 2026-04-25 18:08 | 33.93530 | -118.43155 | 2457 ft | 201 kts | 263° |
| 2026-04-25 18:08 | 33.93436 | -118.44958 | 2816 ft | 227 kts | 266° |
| 2026-04-25 18:08 | 33.93212 | -118.46917 | 3293 ft | 244 kts | 251° |
| 2026-04-25 18:08 | 33.92560 | -118.48824 | 4208 ft | 246 kts | 246° |
| 2026-04-25 18:09 | 33.91845 | -118.50730 | 5118 ft | 251 kts | 245° |
| 2026-04-25 18:09 | 33.91097 | -118.52671 | 6008 ft | 260 kts | 246° |
| 2026-04-25 18:09 | 33.90366 | -118.54687 | 6975 ft | 263 kts | 247° |
| 2026-04-25 18:09 | 33.90128 | -118.55343 | 7315 ft | 261 kts | 245° |
| 2026-04-25 18:10 | 33.87864 | -118.57703 | 8840 ft | 272 kts | 198° |
| 2026-04-25 18:10 | 33.85993 | -118.57899 | 9871 ft | 278 kts | 177° |
| 2026-04-25 18:10 | 33.84101 | -118.57240 | 10693 ft | 293 kts | 157° |
| 2026-04-25 18:10 | 33.82393 | -118.55662 | 11034 ft | 330 kts | 135° |
| 2026-04-25 18:11 | 33.81103 | -118.53207 | 11258 ft | 367 kts | 116° |
| 2026-04-25 18:11 | 33.80438 | -118.50151 | 11603 ft | 396 kts | 97° |
| 2026-04-25 18:11 | 33.80687 | -118.46786 | 12275 ft | 415 kts | 75° |
| 2026-04-25 18:11 | 33.82019 | -118.43670 | 13059 ft | 426 kts | 50° |
| 2026-04-25 18:12 | 33.84262 | -118.41334 | 13884 ft | 430 kts | 26° |
| 2026-04-25 18:12 | 33.87055 | -118.40153 | 14657 ft | 424 kts | 3° |
| 2026-04-25 18:12 | 33.89955 | -118.40171 | 15012 ft | 411 kts | 347° |
| 2026-04-25 18:12 | 33.92816 | -118.40548 | 14993 ft | 417 kts | 352° |
| 2026-04-25 18:13 | 33.95737 | -118.40106 | 15001 ft | 434 kts | 15° |
| 2026-04-25 18:13 | 33.98399 | -118.38341 | 15002 ft | 443 kts | 39° |
| 2026-04-25 18:13 | 34.00312 | -118.35423 | 15515 ft | 449 kts | 64° |
| 2026-04-25 18:14 | 34.02795 | -118.28504 | 17224 ft | 456 kts | 65° |
| 2026-04-25 18:14 | 34.04159 | -118.25011 | 18078 ft | 463 kts | 64° |
| 2026-04-25 18:14 | 34.05693 | -118.21578 | 18957 ft | 466 kts | 59° |
| 2026-04-25 18:14 | 34.07421 | -118.18247 | 19731 ft | 469 kts | 56° |
| 2026-04-25 18:15 | 34.09255 | -118.15015 | 20468 ft | 475 kts | 54° |
| 2026-04-25 18:15 | 34.11155 | -118.11720 | 21164 ft | 481 kts | 55° |
| 2026-04-25 18:15 | 34.13067 | -118.08374 | 21862 ft | 486 kts | 55° |
| 2026-04-25 18:15 | 34.14986 | -118.04984 | 22560 ft | 491 kts | 55° |
| 2026-04-25 18:16 | 34.16920 | -118.01549 | 23258 ft | 496 kts | 56° |
| 2026-04-25 18:16 | 34.18866 | -117.98085 | 23866 ft | 502 kts | 56° |
| 2026-04-25 18:16 | 34.22813 | -117.91051 | 24958 ft | 510 kts | 55° |
| 2026-04-25 18:17 | 34.24820 | -117.87477 | 25387 ft | 516 kts | 55° |
| 2026-04-25 18:17 | 34.26810 | -117.83923 | 25945 ft | 519 kts | 55° |
| 2026-04-25 18:17 | 34.28837 | -117.80299 | 26507 ft | 522 kts | 55° |
| 2026-04-25 18:17 | 34.30880 | -117.76647 | 27039 ft | 526 kts | 55° |
| 2026-04-25 18:18 | 34.32940 | -117.72958 | 27525 ft | 530 kts | 55° |
| 2026-04-25 18:18 | 34.35019 | -117.69239 | 27951 ft | 535 kts | 55° |
| 2026-04-25 18:18 | 34.37147 | -117.65514 | 28374 ft | 539 kts | 53° |
| 2026-04-25 18:18 | 34.39345 | -117.61821 | 28813 ft | 542 kts | 53° |
| 2026-04-25 18:19 | 34.41586 | -117.58122 | 29228 ft | 545 kts | 52° |
| 2026-04-25 18:19 | 34.43834 | -117.54413 | 29615 ft | 548 kts | 52° |
| 2026-04-25 18:19 | 34.46078 | -117.50692 | 30173 ft | 547 kts | 52° |
| 2026-04-25 18:19 | 34.48312 | -117.46966 | 30698 ft | 545 kts | 53° |
| 2026-04-25 18:20 | 34.50493 | -117.43305 | 31275 ft | 541 kts | 53° |
| 2026-04-25 18:20 | 34.52698 | -117.39594 | 31804 ft | 540 kts | 53° |
| 2026-04-25 18:20 | 34.54891 | -117.35896 | 32236 ft | 539 kts | 53° |
| 2026-04-25 18:20 | 34.57085 | -117.32191 | 32657 ft | 540 kts | 53° |
| 2026-04-25 18:21 | 34.59270 | -117.28496 | 33089 ft | 539 kts | 53° |
| 2026-04-25 18:21 | 34.61459 | -117.24793 | 33540 ft | 538 kts | 53° |
| 2026-04-25 18:21 | 34.63640 | -117.21101 | 33980 ft | 537 kts | 53° |
| 2026-04-25 18:21 | 34.65792 | -117.17455 | 34225 ft | 537 kts | 53° |
| 2026-04-25 18:22 | 34.67972 | -117.13758 | 34483 ft | 539 kts | 53° |
| 2026-04-25 18:22 | 34.72361 | -117.06303 | 35036 ft | 542 kts | 53° |
| 2026-04-25 18:22 | 34.74552 | -117.02574 | 35346 ft | 542 kts | 53° |
| 2026-04-25 18:23 | 34.76746 | -116.98837 | 35632 ft | 543 kts | 53° |
| 2026-04-25 18:23 | 34.78922 | -116.95127 | 35897 ft | 545 kts | 53° |
| 2026-04-25 18:23 | 34.81126 | -116.91364 | 36119 ft | 547 kts | 53° |
| 2026-04-25 18:23 | 34.83337 | -116.87586 | 36462 ft | 546 kts | 53° |
| 2026-04-25 18:24 | 34.85540 | -116.83814 | 36781 ft | 546 kts | 53° |
| 2026-04-25 18:24 | 34.89990 | -116.76196 | 36884 ft | 554 kts | 53° |
| 2026-04-25 18:25 | 34.94754 | -116.68912 | 36876 ft | 548 kts | 45° |
| 2026-04-25 18:25 | 34.99948 | -116.62152 | 36857 ft | 544 kts | 44° |
| 2026-04-25 18:26 | 35.05141 | -116.55437 | 36837 ft | 543 kts | 44° |
| 2026-04-25 18:26 | 35.10258 | -116.48719 | 36817 ft | 543 kts | 44° |
| 2026-04-25 18:27 | 35.15386 | -116.41924 | 36819 ft | 542 kts | 45° |
| 2026-04-25 18:27 | 35.19634 | -116.36281 | 36868 ft | 542 kts | 45° |
| 2026-04-25 18:28 | 35.24747 | -116.29484 | 36839 ft | 543 kts | 45° |
| 2026-04-25 18:28 | 35.29853 | -116.22686 | 36825 ft | 542 kts | 45° |
| 2026-04-25 18:29 | 35.37495 | -116.12490 | 36835 ft | 540 kts | 45° |
| 2026-04-25 18:30 | 35.47632 | -115.98911 | 36844 ft | 541 kts | 45° |
| 2026-04-25 18:30 | 35.52720 | -115.92073 | 36833 ft | 542 kts | 45° |
| 2026-04-25 18:31 | 35.57806 | -115.85227 | 36832 ft | 542 kts | 45° |
| 2026-04-25 18:31 | 35.62861 | -115.78409 | 36839 ft | 542 kts | 45° |
| 2026-04-25 18:32 | 35.67919 | -115.71513 | 36840 ft | 543 kts | 45° |
| 2026-04-25 18:32 | 35.72955 | -115.64575 | 36836 ft | 543 kts | 45° |
| 2026-04-25 18:33 | 35.77962 | -115.57666 | 36846 ft | 543 kts | 45° |
| 2026-04-25 18:33 | 35.83004 | -115.50709 | 36871 ft | 544 kts | 45° |
| 2026-04-25 18:34 | 35.88048 | -115.43729 | 36838 ft | 544 kts | 45° |
| 2026-04-25 18:34 | 35.93083 | -115.36760 | 36826 ft | 543 kts | 45° |
| 2026-04-25 18:35 | 35.98097 | -115.29797 | 36832 ft | 542 kts | 45° |
| 2026-04-25 18:35 | 36.03099 | -115.22836 | 36811 ft | 541 kts | 45° |
| 2026-04-25 18:36 | 36.07572 | -115.15352 | 36811 ft | 543 kts | 58° |
| 2026-04-25 18:36 | 36.10888 | -115.07041 | 36809 ft | 543 kts | 69° |
| 2026-04-25 18:37 | 36.13478 | -114.98272 | 36766 ft | 543 kts | 70° |
| 2026-04-25 18:37 | 36.16094 | -114.89494 | 36755 ft | 544 kts | 70° |
| 2026-04-25 18:38 | 36.18773 | -114.80722 | 36742 ft | 545 kts | 69° |
| 2026-04-25 18:38 | 36.21477 | -114.71916 | 36726 ft | 546 kts | 69° |
| 2026-04-25 18:39 | 36.24161 | -114.63162 | 36707 ft | 547 kts | 69° |
| 2026-04-25 18:39 | 36.26855 | -114.54345 | 36697 ft | 547 kts | 70° |
| 2026-04-25 18:40 | 36.29542 | -114.45513 | 36709 ft | 547 kts | 70° |
| 2026-04-25 18:40 | 36.32206 | -114.36726 | 36715 ft | 546 kts | 70° |
| 2026-04-25 18:41 | 36.34874 | -114.27900 | 36706 ft | 546 kts | 70° |
| 2026-04-25 18:41 | 36.37537 | -114.19065 | 36727 ft | 545 kts | 70° |
| 2026-04-25 18:42 | 36.39740 | -114.11727 | 36709 ft | 545 kts | 70° |
| 2026-04-25 18:42 | 36.42813 | -114.01469 | 36725 ft | 545 kts | 70° |
| 2026-04-25 18:43 | 36.45456 | -113.92618 | 36727 ft | 545 kts | 70° |
| 2026-04-25 18:43 | 36.48072 | -113.83836 | 36761 ft | 545 kts | 70° |
| 2026-04-25 18:44 | 36.50702 | -113.74970 | 36756 ft | 546 kts | 70° |
| 2026-04-25 18:44 | 36.53323 | -113.66103 | 36773 ft | 547 kts | 70° |
| 2026-04-25 18:45 | 36.55949 | -113.57200 | 36770 ft | 548 kts | 70° |
| 2026-04-25 18:45 | 36.58550 | -113.48343 | 36765 ft | 549 kts | 70° |
| 2026-04-25 18:46 | 36.61164 | -113.39421 | 36764 ft | 549 kts | 70° |
| 2026-04-25 18:46 | 36.63776 | -113.30466 | 36765 ft | 550 kts | 70° |
| 2026-04-25 18:47 | 36.66365 | -113.21504 | 36789 ft | 550 kts | 70° |
| 2026-04-25 18:47 | 36.68949 | -113.12517 | 36827 ft | 550 kts | 70° |
| 2026-04-25 18:48 | 36.71513 | -113.03579 | 36825 ft | 551 kts | 70° |
| 2026-04-25 18:48 | 36.74094 | -112.94562 | 36852 ft | 551 kts | 70° |
| 2026-04-25 18:49 | 36.76661 | -112.85560 | 36829 ft | 551 kts | 70° |
| 2026-04-25 18:49 | 36.79223 | -112.76542 | 36820 ft | 551 kts | 70° |
| 2026-04-25 18:50 | 36.81777 | -112.67526 | 36792 ft | 551 kts | 70° |
| 2026-04-25 18:50 | 36.84309 | -112.58559 | 36744 ft | 551 kts | 70° |
| 2026-04-25 18:51 | 36.86439 | -112.50991 | 36758 ft | 551 kts | 70° |
| 2026-04-25 18:51 | 36.89387 | -112.40490 | 36742 ft | 551 kts | 70° |
| 2026-04-25 18:52 | 36.91926 | -112.31448 | 36725 ft | 552 kts | 70° |